sensor_id;sensor_type;location;lat;lon;timestamp;P1;durP1;ratioP1;P2;durP2;ratioP2
41343;SDS011;27089;50.022;7.604;2024-01-16T00:01:45;8.40;;;4.47;;
41343;SDS011;27089;50.022;7.604;2024-01-16T00:04:12;10.00;;;4.37;;
41343;SDS011;27089;50.022;7.604;2024-01-16T00:06:40;11.77;;;4.73;;
41343;SDS011;27089;50.022;7.604;2024-01-16T00:09:08;8.57;;;4.60;;
41343;SDS011;27089;50.022;7.604;2024-01-16T00:11:39;10.00;;;5.13;;
41343;SDS011;27089;50.022;7.604;2024-01-16T00:14:06;7.23;;;4.30;;
41343;SDS011;27089;50.022;7.604;2024-01-16T00:16:33;7.37;;;4.40;;
41343;SDS011;27089;50.022;7.604;2024-01-16T00:19:07;9.77;;;4.07;;
41343;SDS011;27089;50.022;7.604;2024-01-16T00:21:37;6.00;;;4.33;;
41343;SDS011;27089;50.022;7.604;2024-01-16T00:24:07;9.90;;;4.63;;
41343;SDS011;27089;50.022;7.604;2024-01-16T00:26:34;7.07;;;4.10;;
41343;SDS011;27089;50.022;7.604;2024-01-16T00:29:01;7.17;;;4.27;;
41343;SDS011;27089;50.022;7.604;2024-01-16T00:31:28;8.10;;;4.40;;
41343;SDS011;27089;50.022;7.604;2024-01-16T00:33:55;10.37;;;4.57;;
41343;SDS011;27089;50.022;7.604;2024-01-16T00:36:22;7.40;;;4.70;;
41343;SDS011;27089;50.022;7.604;2024-01-16T00:38:49;6.60;;;4.30;;
41343;SDS011;27089;50.022;7.604;2024-01-16T00:41:17;7.07;;;4.17;;
41343;SDS011;27089;50.022;7.604;2024-01-16T00:43:44;7.50;;;3.93;;
41343;SDS011;27089;50.022;7.604;2024-01-16T00:46:12;5.90;;;4.03;;
41343;SDS011;27089;50.022;7.604;2024-01-16T00:48:39;7.53;;;4.23;;
41343;SDS011;27089;50.022;7.604;2024-01-16T00:51:08;10.03;;;4.73;;
41343;SDS011;27089;50.022;7.604;2024-01-16T00:53:39;8.07;;;4.97;;
41343;SDS011;27089;50.022;7.604;2024-01-16T00:56:06;8.17;;;4.47;;
41343;SDS011;27089;50.022;7.604;2024-01-16T00:58:35;8.80;;;4.00;;
41343;SDS011;27089;50.022;7.604;2024-01-16T01:01:02;8.40;;;4.00;;
41343;SDS011;27089;50.022;7.604;2024-01-16T01:03:30;7.53;;;4.20;;
41343;SDS011;27089;50.022;7.604;2024-01-16T01:05:57;6.30;;;3.90;;
41343;SDS011;27089;50.022;7.604;2024-01-16T01:08:24;11.30;;;4.47;;
41343;SDS011;27089;50.022;7.604;2024-01-16T01:10:51;8.10;;;4.03;;
41343;SDS011;27089;50.022;7.604;2024-01-16T01:13:18;9.20;;;4.03;;
41343;SDS011;27089;50.022;7.604;2024-01-16T01:15:47;6.87;;;3.90;;
41343;SDS011;27089;50.022;7.604;2024-01-16T01:18:14;13.47;;;4.37;;
41343;SDS011;27089;50.022;7.604;2024-01-16T01:20:41;7.67;;;4.00;;
41343;SDS011;27089;50.022;7.604;2024-01-16T01:23:08;7.63;;;4.03;;
41343;SDS011;27089;50.022;7.604;2024-01-16T01:25:35;9.77;;;4.20;;
41343;SDS011;27089;50.022;7.604;2024-01-16T01:28:03;7.47;;;4.47;;
41343;SDS011;27089;50.022;7.604;2024-01-16T01:30:31;9.83;;;4.10;;
41343;SDS011;27089;50.022;7.604;2024-01-16T01:32:59;9.07;;;4.30;;
41343;SDS011;27089;50.022;7.604;2024-01-16T01:35:26;7.70;;;3.67;;
41343;SDS011;27089;50.022;7.604;2024-01-16T01:37:53;9.37;;;4.50;;
41343;SDS011;27089;50.022;7.604;2024-01-16T01:40:20;9.20;;;4.00;;
41343;SDS011;27089;50.022;7.604;2024-01-16T01:42:50;8.03;;;4.17;;
41343;SDS011;27089;50.022;7.604;2024-01-16T01:45:17;10.10;;;4.73;;
41343;SDS011;27089;50.022;7.604;2024-01-16T01:47:44;11.03;;;4.13;;
41343;SDS011;27089;50.022;7.604;2024-01-16T01:50:13;6.27;;;3.77;;
41343;SDS011;27089;50.022;7.604;2024-01-16T01:52:41;6.07;;;3.77;;
41343;SDS011;27089;50.022;7.604;2024-01-16T01:55:10;8.33;;;4.00;;
41343;SDS011;27089;50.022;7.604;2024-01-16T01:57:39;7.20;;;3.90;;
41343;SDS011;27089;50.022;7.604;2024-01-16T02:00:08;7.73;;;3.67;;
41343;SDS011;27089;50.022;7.604;2024-01-16T02:02:36;9.93;;;4.43;;
41343;SDS011;27089;50.022;7.604;2024-01-16T02:05:03;10.57;;;4.00;;
41343;SDS011;27089;50.022;7.604;2024-01-16T02:07:32;10.03;;;3.87;;
41343;SDS011;27089;50.022;7.604;2024-01-16T02:10:00;8.20;;;4.30;;
41343;SDS011;27089;50.022;7.604;2024-01-16T02:12:28;7.53;;;3.67;;
41343;SDS011;27089;50.022;7.604;2024-01-16T02:14:56;10.67;;;3.97;;
41343;SDS011;27089;50.022;7.604;2024-01-16T02:17:23;6.43;;;3.97;;
41343;SDS011;27089;50.022;7.604;2024-01-16T02:19:50;8.23;;;4.47;;
41343;SDS011;27089;50.022;7.604;2024-01-16T02:22:18;8.77;;;3.50;;
41343;SDS011;27089;50.022;7.604;2024-01-16T02:24:48;8.20;;;3.87;;
41343;SDS011;27089;50.022;7.604;2024-01-16T02:27:16;10.63;;;3.70;;
41343;SDS011;27089;50.022;7.604;2024-01-16T02:29:43;8.00;;;4.07;;
41343;SDS011;27089;50.022;7.604;2024-01-16T02:32:10;8.13;;;4.13;;
41343;SDS011;27089;50.022;7.604;2024-01-16T02:34:39;4.83;;;3.37;;
41343;SDS011;27089;50.022;7.604;2024-01-16T02:37:06;9.73;;;4.10;;
41343;SDS011;27089;50.022;7.604;2024-01-16T02:39:33;5.63;;;3.57;;
41343;SDS011;27089;50.022;7.604;2024-01-16T02:42:02;9.27;;;4.07;;
41343;SDS011;27089;50.022;7.604;2024-01-16T02:44:29;7.77;;;3.40;;
41343;SDS011;27089;50.022;7.604;2024-01-16T02:46:56;4.50;;;3.07;;
41343;SDS011;27089;50.022;7.604;2024-01-16T02:49:22;7.10;;;3.87;;
41343;SDS011;27089;50.022;7.604;2024-01-16T02:51:51;8.30;;;3.83;;
41343;SDS011;27089;50.022;7.604;2024-01-16T02:54:17;5.87;;;3.47;;
41343;SDS011;27089;50.022;7.604;2024-01-16T02:56:46;9.37;;;3.77;;
41343;SDS011;27089;50.022;7.604;2024-01-16T02:59:16;7.03;;;3.77;;
41343;SDS011;27089;50.022;7.604;2024-01-16T03:01:43;8.83;;;4.00;;
41343;SDS011;27089;50.022;7.604;2024-01-16T03:04:10;8.37;;;3.87;;
41343;SDS011;27089;50.022;7.604;2024-01-16T03:06:37;7.10;;;3.80;;
41343;SDS011;27089;50.022;7.604;2024-01-16T03:09:04;10.60;;;4.33;;
41343;SDS011;27089;50.022;7.604;2024-01-16T03:11:31;8.47;;;3.80;;
41343;SDS011;27089;50.022;7.604;2024-01-16T03:13:58;6.47;;;3.60;;
41343;SDS011;27089;50.022;7.604;2024-01-16T03:16:27;8.53;;;3.60;;
41343;SDS011;27089;50.022;7.604;2024-01-16T03:18:54;6.73;;;3.80;;
41343;SDS011;27089;50.022;7.604;2024-01-16T03:21:21;7.10;;;4.10;;
41343;SDS011;27089;50.022;7.604;2024-01-16T03:23:48;6.93;;;4.30;;
41343;SDS011;27089;50.022;7.604;2024-01-16T03:26:15;10.17;;;3.57;;
41343;SDS011;27089;50.022;7.604;2024-01-16T03:28:42;6.10;;;3.50;;
41343;SDS011;27089;50.022;7.604;2024-01-16T03:31:09;8.03;;;3.83;;
41343;SDS011;27089;50.022;7.604;2024-01-16T03:33:37;8.90;;;3.87;;
41343;SDS011;27089;50.022;7.604;2024-01-16T03:36:07;9.03;;;4.17;;
41343;SDS011;27089;50.022;7.604;2024-01-16T03:38:34;8.97;;;4.20;;
41343;SDS011;27089;50.022;7.604;2024-01-16T03:41:02;10.83;;;4.20;;
41343;SDS011;27089;50.022;7.604;2024-01-16T03:43:31;10.20;;;4.03;;
41343;SDS011;27089;50.022;7.604;2024-01-16T03:45:59;6.77;;;3.80;;
41343;SDS011;27089;50.022;7.604;2024-01-16T03:48:26;12.03;;;4.10;;
41343;SDS011;27089;50.022;7.604;2024-01-16T03:50:54;8.17;;;3.73;;
41343;SDS011;27089;50.022;7.604;2024-01-16T03:53:21;9.63;;;3.70;;
41343;SDS011;27089;50.022;7.604;2024-01-16T03:55:48;9.27;;;3.93;;
41343;SDS011;27089;50.022;7.604;2024-01-16T03:58:16;12.30;;;6.03;;
41343;SDS011;27089;50.022;7.604;2024-01-16T04:00:43;7.83;;;4.47;;
41343;SDS011;27089;50.022;7.604;2024-01-16T04:03:10;8.07;;;3.90;;
41343;SDS011;27089;50.022;7.604;2024-01-16T04:05:38;7.17;;;3.90;;
41343;SDS011;27089;50.022;7.604;2024-01-16T04:08:06;9.17;;;4.10;;
41343;SDS011;27089;50.022;7.604;2024-01-16T04:10:33;8.13;;;3.93;;
41343;SDS011;27089;50.022;7.604;2024-01-16T04:13:00;7.17;;;3.80;;
41343;SDS011;27089;50.022;7.604;2024-01-16T04:15:27;7.10;;;3.70;;
41343;SDS011;27089;50.022;7.604;2024-01-16T04:17:55;13.43;;;3.70;;
41343;SDS011;27089;50.022;7.604;2024-01-16T04:20:22;10.83;;;4.40;;
41343;SDS011;27089;50.022;7.604;2024-01-16T04:22:49;8.87;;;3.80;;
41343;SDS011;27089;50.022;7.604;2024-01-16T04:25:17;10.63;;;3.87;;
41343;SDS011;27089;50.022;7.604;2024-01-16T04:27:44;7.67;;;3.70;;
41343;SDS011;27089;50.022;7.604;2024-01-16T04:30:11;9.10;;;3.63;;
41343;SDS011;27089;50.022;7.604;2024-01-16T04:32:39;6.57;;;3.63;;
41343;SDS011;27089;50.022;7.604;2024-01-16T04:35:06;8.90;;;3.93;;
41343;SDS011;27089;50.022;7.604;2024-01-16T04:37:33;9.77;;;3.40;;
41343;SDS011;27089;50.022;7.604;2024-01-16T04:40:00;4.93;;;3.50;;
41343;SDS011;27089;50.022;7.604;2024-01-16T04:42:29;8.93;;;3.80;;
41343;SDS011;27089;50.022;7.604;2024-01-16T04:44:56;8.07;;;3.17;;
41343;SDS011;27089;50.022;7.604;2024-01-16T04:47:23;7.40;;;3.73;;
41343;SDS011;27089;50.022;7.604;2024-01-16T04:49:50;8.77;;;3.97;;
41343;SDS011;27089;50.022;7.604;2024-01-16T04:52:17;9.43;;;5.20;;
41343;SDS011;27089;50.022;7.604;2024-01-16T04:54:44;7.83;;;4.33;;
41343;SDS011;27089;50.022;7.604;2024-01-16T04:57:11;8.07;;;4.20;;
41343;SDS011;27089;50.022;7.604;2024-01-16T04:59:40;10.57;;;3.80;;
41343;SDS011;27089;50.022;7.604;2024-01-16T05:02:08;8.37;;;3.93;;
41343;SDS011;27089;50.022;7.604;2024-01-16T05:04:37;8.13;;;3.70;;
41343;SDS011;27089;50.022;7.604;2024-01-16T05:07:04;6.53;;;3.40;;
41343;SDS011;27089;50.022;7.604;2024-01-16T05:09:31;5.40;;;3.60;;
41343;SDS011;27089;50.022;7.604;2024-01-16T05:11:58;6.27;;;3.40;;
41343;SDS011;27089;50.022;7.604;2024-01-16T05:14:25;9.17;;;3.90;;
41343;SDS011;27089;50.022;7.604;2024-01-16T05:16:54;5.90;;;3.80;;
41343;SDS011;27089;50.022;7.604;2024-01-16T05:19:21;6.77;;;3.67;;
41343;SDS011;27089;50.022;7.604;2024-01-16T05:21:48;11.97;;;4.13;;
41343;SDS011;27089;50.022;7.604;2024-01-16T05:24:15;10.47;;;3.90;;
41343;SDS011;27089;50.022;7.604;2024-01-16T05:26:42;5.10;;;3.80;;
41343;SDS011;27089;50.022;7.604;2024-01-16T05:29:09;7.03;;;3.57;;
41343;SDS011;27089;50.022;7.604;2024-01-16T05:31:39;8.30;;;4.07;;
41343;SDS011;27089;50.022;7.604;2024-01-16T05:34:08;9.50;;;4.37;;
41343;SDS011;27089;50.022;7.604;2024-01-16T05:36:36;32.67;;;14.87;;
41343;SDS011;27089;50.022;7.604;2024-01-16T05:39:03;29.57;;;15.50;;
41343;SDS011;27089;50.022;7.604;2024-01-16T05:41:32;14.47;;;8.23;;
41343;SDS011;27089;50.022;7.604;2024-01-16T05:43:59;9.73;;;5.63;;
41343;SDS011;27089;50.022;7.604;2024-01-16T05:46:28;11.07;;;5.10;;
41343;SDS011;27089;50.022;7.604;2024-01-16T05:48:56;9.23;;;4.17;;
41343;SDS011;27089;50.022;7.604;2024-01-16T05:51:24;6.60;;;3.67;;
41343;SDS011;27089;50.022;7.604;2024-01-16T05:53:51;6.93;;;4.37;;
41343;SDS011;27089;50.022;7.604;2024-01-16T05:56:18;6.93;;;4.50;;
41343;SDS011;27089;50.022;7.604;2024-01-16T05:58:46;12.67;;;5.03;;
41343;SDS011;27089;50.022;7.604;2024-01-16T06:01:13;11.47;;;6.97;;
41343;SDS011;27089;50.022;7.604;2024-01-16T06:03:40;15.40;;;8.60;;
41343;SDS011;27089;50.022;7.604;2024-01-16T06:06:10;7.90;;;4.83;;
41343;SDS011;27089;50.022;7.604;2024-01-16T06:08:39;9.77;;;6.00;;
41343;SDS011;27089;50.022;7.604;2024-01-16T06:11:06;8.73;;;6.00;;
41343;SDS011;27089;50.022;7.604;2024-01-16T06:13:33;10.80;;;5.40;;
41343;SDS011;27089;50.022;7.604;2024-01-16T06:16:00;7.10;;;4.53;;
41343;SDS011;27089;50.022;7.604;2024-01-16T06:18:27;10.13;;;4.53;;
41343;SDS011;27089;50.022;7.604;2024-01-16T06:20:54;10.83;;;5.63;;
41343;SDS011;27089;50.022;7.604;2024-01-16T06:23:21;8.33;;;5.33;;
41343;SDS011;27089;50.022;7.604;2024-01-16T06:25:49;8.03;;;4.03;;
41343;SDS011;27089;50.022;7.604;2024-01-16T06:28:17;7.63;;;4.47;;
41343;SDS011;27089;50.022;7.604;2024-01-16T06:30:44;9.97;;;4.60;;
41343;SDS011;27089;50.022;7.604;2024-01-16T06:33:11;7.43;;;4.47;;
41343;SDS011;27089;50.022;7.604;2024-01-16T06:35:38;8.50;;;5.37;;
41343;SDS011;27089;50.022;7.604;2024-01-16T06:38:05;6.23;;;4.07;;
41343;SDS011;27089;50.022;7.604;2024-01-16T06:40:32;7.97;;;4.50;;
41343;SDS011;27089;50.022;7.604;2024-01-16T06:43:00;7.30;;;3.80;;
41343;SDS011;27089;50.022;7.604;2024-01-16T06:45:27;7.00;;;4.27;;
41343;SDS011;27089;50.022;7.604;2024-01-16T06:47:54;7.37;;;4.40;;
41343;SDS011;27089;50.022;7.604;2024-01-16T06:50:21;9.70;;;4.77;;
41343;SDS011;27089;50.022;7.604;2024-01-16T06:52:48;7.40;;;4.60;;
41343;SDS011;27089;50.022;7.604;2024-01-16T06:55:15;6.57;;;4.63;;
41343;SDS011;27089;50.022;7.604;2024-01-16T06:57:42;6.87;;;3.77;;
41343;SDS011;27089;50.022;7.604;2024-01-16T07:00:14;6.83;;;3.87;;
41343;SDS011;27089;50.022;7.604;2024-01-16T07:02:41;11.13;;;4.40;;
41343;SDS011;27089;50.022;7.604;2024-01-16T07:05:09;7.40;;;4.60;;
41343;SDS011;27089;50.022;7.604;2024-01-16T07:07:37;8.27;;;4.80;;
41343;SDS011;27089;50.022;7.604;2024-01-16T07:10:04;14.13;;;4.63;;
41343;SDS011;27089;50.022;7.604;2024-01-16T07:12:38;7.23;;;5.30;;
41343;SDS011;27089;50.022;7.604;2024-01-16T07:15:06;16.87;;;8.13;;
41343;SDS011;27089;50.022;7.604;2024-01-16T07:17:34;13.87;;;7.80;;
41343;SDS011;27089;50.022;7.604;2024-01-16T07:20:01;14.37;;;7.57;;
41343;SDS011;27089;50.022;7.604;2024-01-16T07:22:29;16.17;;;7.87;;
41343;SDS011;27089;50.022;7.604;2024-01-16T07:24:56;12.50;;;6.27;;
41343;SDS011;27089;50.022;7.604;2024-01-16T07:27:23;11.53;;;6.03;;
41343;SDS011;27089;50.022;7.604;2024-01-16T07:29:49;11.27;;;7.47;;
41343;SDS011;27089;50.022;7.604;2024-01-16T07:32:16;8.33;;;4.70;;
41343;SDS011;27089;50.022;7.604;2024-01-16T07:34:45;7.37;;;5.33;;
41343;SDS011;27089;50.022;7.604;2024-01-16T07:37:12;9.47;;;5.53;;
41343;SDS011;27089;50.022;7.604;2024-01-16T07:39:40;8.67;;;5.63;;
41343;SDS011;27089;50.022;7.604;2024-01-16T07:42:07;5.43;;;4.00;;
41343;SDS011;27089;50.022;7.604;2024-01-16T07:44:34;7.30;;;4.50;;
41343;SDS011;27089;50.022;7.604;2024-01-16T07:47:01;8.67;;;5.43;;
41343;SDS011;27089;50.022;7.604;2024-01-16T07:49:28;13.13;;;6.20;;
41343;SDS011;27089;50.022;7.604;2024-01-16T07:51:57;11.20;;;6.07;;
41343;SDS011;27089;50.022;7.604;2024-01-16T07:54:24;10.43;;;5.90;;
41343;SDS011;27089;50.022;7.604;2024-01-16T07:56:51;10.17;;;5.33;;
41343;SDS011;27089;50.022;7.604;2024-01-16T07:59:18;10.13;;;4.87;;
41343;SDS011;27089;50.022;7.604;2024-01-16T08:01:45;11.37;;;5.23;;
41343;SDS011;27089;50.022;7.604;2024-01-16T08:04:12;7.07;;;4.87;;
41343;SDS011;27089;50.022;7.604;2024-01-16T08:06:39;10.60;;;4.27;;
41343;SDS011;27089;50.022;7.604;2024-01-16T08:09:07;8.77;;;4.53;;
41343;SDS011;27089;50.022;7.604;2024-01-16T08:11:36;7.73;;;4.53;;
41343;SDS011;27089;50.022;7.604;2024-01-16T08:14:04;7.83;;;4.47;;
41343;SDS011;27089;50.022;7.604;2024-01-16T08:16:31;7.67;;;4.60;;
41343;SDS011;27089;50.022;7.604;2024-01-16T08:18:58;9.70;;;5.10;;
41343;SDS011;27089;50.022;7.604;2024-01-16T08:21:25;10.60;;;5.90;;
41343;SDS011;27089;50.022;7.604;2024-01-16T08:23:52;10.40;;;5.63;;
41343;SDS011;27089;50.022;7.604;2024-01-16T08:26:21;11.90;;;5.53;;
41343;SDS011;27089;50.022;7.604;2024-01-16T08:28:47;6.87;;;4.60;;
41343;SDS011;27089;50.022;7.604;2024-01-16T08:31:16;6.77;;;4.60;;
41343;SDS011;27089;50.022;7.604;2024-01-16T08:33:43;8.63;;;4.00;;
41343;SDS011;27089;50.022;7.604;2024-01-16T08:36:10;18.67;;;8.40;;
41343;SDS011;27089;50.022;7.604;2024-01-16T08:38:38;13.37;;;7.67;;
41343;SDS011;27089;50.022;7.604;2024-01-16T08:41:05;13.37;;;7.80;;
41343;SDS011;27089;50.022;7.604;2024-01-16T08:43:34;7.80;;;5.00;;
41343;SDS011;27089;50.022;7.604;2024-01-16T08:46:01;9.43;;;5.00;;
41343;SDS011;27089;50.022;7.604;2024-01-16T08:48:28;8.20;;;4.03;;
41343;SDS011;27089;50.022;7.604;2024-01-16T08:50:56;7.07;;;4.43;;
41343;SDS011;27089;50.022;7.604;2024-01-16T08:53:23;7.20;;;4.40;;
41343;SDS011;27089;50.022;7.604;2024-01-16T08:55:51;10.47;;;6.83;;
41343;SDS011;27089;50.022;7.604;2024-01-16T08:58:18;17.97;;;10.30;;
41343;SDS011;27089;50.022;7.604;2024-01-16T09:00:46;27.93;;;15.53;;
41343;SDS011;27089;50.022;7.604;2024-01-16T09:03:13;25.93;;;13.73;;
41343;SDS011;27089;50.022;7.604;2024-01-16T09:05:40;12.60;;;8.00;;
41343;SDS011;27089;50.022;7.604;2024-01-16T09:08:08;14.10;;;8.80;;
41343;SDS011;27089;50.022;7.604;2024-01-16T09:10:35;16.23;;;9.17;;
41343;SDS011;27089;50.022;7.604;2024-01-16T09:13:02;11.37;;;6.00;;
41343;SDS011;27089;50.022;7.604;2024-01-16T09:15:29;6.50;;;3.90;;
41343;SDS011;27089;50.022;7.604;2024-01-16T09:17:57;10.63;;;5.20;;
41343;SDS011;27089;50.022;7.604;2024-01-16T09:20:24;13.97;;;7.37;;
41343;SDS011;27089;50.022;7.604;2024-01-16T09:22:51;11.47;;;6.80;;
41343;SDS011;27089;50.022;7.604;2024-01-16T09:25:18;9.57;;;5.43;;
41343;SDS011;27089;50.022;7.604;2024-01-16T09:27:49;9.60;;;4.10;;
41343;SDS011;27089;50.022;7.604;2024-01-16T09:30:16;7.63;;;4.00;;
41343;SDS011;27089;50.022;7.604;2024-01-16T09:32:43;7.63;;;3.37;;
41343;SDS011;27089;50.022;7.604;2024-01-16T09:35:12;7.07;;;3.77;;
41343;SDS011;27089;50.022;7.604;2024-01-16T09:37:39;9.20;;;3.47;;
41343;SDS011;27089;50.022;7.604;2024-01-16T09:40:06;7.67;;;3.40;;
41343;SDS011;27089;50.022;7.604;2024-01-16T09:42:34;7.07;;;3.27;;
41343;SDS011;27089;50.022;7.604;2024-01-16T09:45:01;6.57;;;3.27;;
41343;SDS011;27089;50.022;7.604;2024-01-16T09:47:29;5.60;;;4.23;;
41343;SDS011;27089;50.022;7.604;2024-01-16T09:49:57;8.33;;;3.63;;
41343;SDS011;27089;50.022;7.604;2024-01-16T09:52:26;6.47;;;4.27;;
41343;SDS011;27089;50.022;7.604;2024-01-16T09:54:53;10.93;;;5.30;;
41343;SDS011;27089;50.022;7.604;2024-01-16T09:57:22;13.63;;;5.93;;
41343;SDS011;27089;50.022;7.604;2024-01-16T09:59:51;7.60;;;4.90;;
41343;SDS011;27089;50.022;7.604;2024-01-16T10:02:19;8.40;;;4.10;;
41343;SDS011;27089;50.022;7.604;2024-01-16T10:04:47;8.93;;;4.10;;
41343;SDS011;27089;50.022;7.604;2024-01-16T10:07:15;9.20;;;4.13;;
41343;SDS011;27089;50.022;7.604;2024-01-16T10:09:44;8.07;;;3.90;;
41343;SDS011;27089;50.022;7.604;2024-01-16T10:12:11;6.90;;;3.40;;
41343;SDS011;27089;50.022;7.604;2024-01-16T10:14:39;8.70;;;3.20;;
41343;SDS011;27089;50.022;7.604;2024-01-16T10:17:08;7.07;;;2.87;;
41343;SDS011;27089;50.022;7.604;2024-01-16T10:19:47;6.37;;;3.53;;
41343;SDS011;27089;50.022;7.604;2024-01-16T10:22:19;9.93;;;3.30;;
41343;SDS011;27089;50.022;7.604;2024-01-16T10:24:48;4.87;;;3.00;;
41343;SDS011;27089;50.022;7.604;2024-01-16T10:27:15;7.97;;;4.20;;
41343;SDS011;27089;50.022;7.604;2024-01-16T10:29:49;7.17;;;3.43;;
41343;SDS011;27089;50.022;7.604;2024-01-16T10:32:33;7.23;;;3.10;;
41343;SDS011;27089;50.022;7.604;2024-01-16T10:35:01;6.17;;;3.30;;
41343;SDS011;27089;50.022;7.604;2024-01-16T10:37:40;6.30;;;3.00;;
41343;SDS011;27089;50.022;7.604;2024-01-16T10:40:10;14.10;;;5.50;;
41343;SDS011;27089;50.022;7.604;2024-01-16T10:42:40;9.80;;;4.37;;
41343;SDS011;27089;50.022;7.604;2024-01-16T10:45:07;11.13;;;4.10;;
41343;SDS011;27089;50.022;7.604;2024-01-16T10:47:35;6.13;;;3.57;;
41343;SDS011;27089;50.022;7.604;2024-01-16T10:50:03;7.17;;;3.03;;
41343;SDS011;27089;50.022;7.604;2024-01-16T10:52:33;10.43;;;4.00;;
41343;SDS011;27089;50.022;7.604;2024-01-16T10:55:03;6.30;;;4.10;;
41343;SDS011;27089;50.022;7.604;2024-01-16T10:57:34;7.13;;;3.80;;
41343;SDS011;27089;50.022;7.604;2024-01-16T11:00:07;9.60;;;4.27;;
41343;SDS011;27089;50.022;7.604;2024-01-16T11:02:50;8.87;;;2.97;;
41343;SDS011;27089;50.022;7.604;2024-01-16T11:05:22;6.97;;;2.80;;
41343;SDS011;27089;50.022;7.604;2024-01-16T11:07:50;6.27;;;3.17;;
41343;SDS011;27089;50.022;7.604;2024-01-16T11:10:20;5.83;;;2.90;;
41343;SDS011;27089;50.022;7.604;2024-01-16T11:12:51;8.47;;;4.27;;
41343;SDS011;27089;50.022;7.604;2024-01-16T11:15:19;6.50;;;3.03;;
41343;SDS011;27089;50.022;7.604;2024-01-16T11:17:46;8.47;;;2.90;;
41343;SDS011;27089;50.022;7.604;2024-01-16T11:20:13;7.40;;;3.00;;
41343;SDS011;27089;50.022;7.604;2024-01-16T11:22:42;4.47;;;2.70;;
41343;SDS011;27089;50.022;7.604;2024-01-16T11:25:10;7.67;;;3.10;;
41343;SDS011;27089;50.022;7.604;2024-01-16T11:27:39;8.53;;;2.90;;
41343;SDS011;27089;50.022;7.604;2024-01-16T11:30:09;5.07;;;2.77;;
41343;SDS011;27089;50.022;7.604;2024-01-16T11:32:37;5.43;;;2.87;;
41343;SDS011;27089;50.022;7.604;2024-01-16T11:35:05;4.67;;;2.47;;
41343;SDS011;27089;50.022;7.604;2024-01-16T11:37:33;5.50;;;2.40;;
41343;SDS011;27089;50.022;7.604;2024-01-16T11:40:21;7.57;;;3.30;;
41343;SDS011;27089;50.022;7.604;2024-01-16T11:42:49;9.20;;;3.03;;
41343;SDS011;27089;50.022;7.604;2024-01-16T11:48:18;8.23;;;3.00;;
41343;SDS011;27089;50.022;7.604;2024-01-16T11:50:46;5.43;;;2.30;;
41343;SDS011;27089;50.022;7.604;2024-01-16T11:53:32;5.57;;;2.60;;
41343;SDS011;27089;50.022;7.604;2024-01-16T11:56:19;6.03;;;2.67;;
41343;SDS011;27089;50.022;7.604;2024-01-16T11:59:08;7.33;;;2.33;;
41343;SDS011;27089;50.022;7.604;2024-01-16T12:02:01;7.47;;;2.43;;
41343;SDS011;27089;50.022;7.604;2024-01-16T12:04:35;6.10;;;2.13;;
41343;SDS011;27089;50.022;7.604;2024-01-16T12:07:02;7.13;;;2.23;;
41343;SDS011;27089;50.022;7.604;2024-01-16T12:09:29;5.23;;;1.87;;
41343;SDS011;27089;50.022;7.604;2024-01-16T12:11:57;4.27;;;2.07;;
41343;SDS011;27089;50.022;7.604;2024-01-16T12:14:26;5.77;;;2.27;;
41343;SDS011;27089;50.022;7.604;2024-01-16T12:17:03;6.00;;;2.47;;
41343;SDS011;27089;50.022;7.604;2024-01-16T12:19:35;7.83;;;2.43;;
41343;SDS011;27089;50.022;7.604;2024-01-16T12:22:02;4.67;;;2.10;;
41343;SDS011;27089;50.022;7.604;2024-01-16T12:24:29;4.70;;;1.80;;
41343;SDS011;27089;50.022;7.604;2024-01-16T12:26:57;5.53;;;2.20;;
41343;SDS011;27089;50.022;7.604;2024-01-16T12:29:24;4.43;;;1.93;;
41343;SDS011;27089;50.022;7.604;2024-01-16T12:31:51;8.23;;;2.60;;
41343;SDS011;27089;50.022;7.604;2024-01-16T12:34:34;5.73;;;3.30;;
41343;SDS011;27089;50.022;7.604;2024-01-16T12:37:05;4.17;;;3.00;;
41343;SDS011;27089;50.022;7.604;2024-01-16T12:39:33;6.80;;;3.00;;
41343;SDS011;27089;50.022;7.604;2024-01-16T12:42:01;12.63;;;3.50;;
41343;SDS011;27089;50.022;7.604;2024-01-16T12:44:29;7.50;;;3.30;;
41343;SDS011;27089;50.022;7.604;2024-01-16T12:46:56;5.43;;;2.83;;
41343;SDS011;27089;50.022;7.604;2024-01-16T12:49:25;3.93;;;2.30;;
41343;SDS011;27089;50.022;7.604;2024-01-16T12:51:52;4.67;;;2.20;;
41343;SDS011;27089;50.022;7.604;2024-01-16T12:54:46;3.37;;;1.97;;
41343;SDS011;27089;50.022;7.604;2024-01-16T12:57:17;3.77;;;1.60;;
41343;SDS011;27089;50.022;7.604;2024-01-16T12:59:45;3.47;;;2.03;;
41343;SDS011;27089;50.022;7.604;2024-01-16T13:02:19;4.57;;;1.87;;
41343;SDS011;27089;50.022;7.604;2024-01-16T13:04:49;4.63;;;1.90;;
41343;SDS011;27089;50.022;7.604;2024-01-16T13:07:24;5.83;;;1.90;;
41343;SDS011;27089;50.022;7.604;2024-01-16T13:10:05;5.80;;;1.90;;
41343;SDS011;27089;50.022;7.604;2024-01-16T13:12:33;3.57;;;2.10;;
41343;SDS011;27089;50.022;7.604;2024-01-16T13:15:01;7.40;;;3.07;;
41343;SDS011;27089;50.022;7.604;2024-01-16T13:17:31;6.03;;;3.20;;
41343;SDS011;27089;50.022;7.604;2024-01-16T13:19:59;13.70;;;5.17;;
41343;SDS011;27089;50.022;7.604;2024-01-16T13:22:28;15.03;;;4.87;;
41343;SDS011;27089;50.022;7.604;2024-01-16T13:24:55;10.20;;;3.77;;
41343;SDS011;27089;50.022;7.604;2024-01-16T13:27:22;6.70;;;2.40;;
41343;SDS011;27089;50.022;7.604;2024-01-16T13:29:51;3.93;;;2.03;;
41343;SDS011;27089;50.022;7.604;2024-01-16T13:32:18;4.93;;;1.90;;
41343;SDS011;27089;50.022;7.604;2024-01-16T13:34:45;4.80;;;2.40;;
41343;SDS011;27089;50.022;7.604;2024-01-16T13:37:18;9.00;;;2.43;;
41343;SDS011;27089;50.022;7.604;2024-01-16T13:39:48;3.57;;;2.07;;
41343;SDS011;27089;50.022;7.604;2024-01-16T13:42:15;6.03;;;2.00;;
41343;SDS011;27089;50.022;7.604;2024-01-16T13:44:45;10.07;;;2.33;;
41343;SDS011;27089;50.022;7.604;2024-01-16T13:47:13;6.07;;;2.60;;
41343;SDS011;27089;50.022;7.604;2024-01-16T13:49:44;6.57;;;3.07;;
41343;SDS011;27089;50.022;7.604;2024-01-16T13:52:11;7.47;;;2.70;;
41343;SDS011;27089;50.022;7.604;2024-01-16T13:54:39;6.93;;;2.57;;
41343;SDS011;27089;50.022;7.604;2024-01-16T13:57:07;4.47;;;2.27;;
41343;SDS011;27089;50.022;7.604;2024-01-16T13:59:34;9.33;;;2.57;;
41343;SDS011;27089;50.022;7.604;2024-01-16T14:02:01;5.67;;;2.00;;
41343;SDS011;27089;50.022;7.604;2024-01-16T14:04:29;5.07;;;2.20;;
41343;SDS011;27089;50.022;7.604;2024-01-16T14:06:56;7.80;;;3.80;;
41343;SDS011;27089;50.022;7.604;2024-01-16T14:09:23;10.23;;;3.40;;
41343;SDS011;27089;50.022;7.604;2024-01-16T14:11:51;9.37;;;3.03;;
41343;SDS011;27089;50.022;7.604;2024-01-16T14:14:18;8.60;;;3.00;;
41343;SDS011;27089;50.022;7.604;2024-01-16T14:16:46;10.30;;;6.03;;
41343;SDS011;27089;50.022;7.604;2024-01-16T14:19:14;16.47;;;7.47;;
41343;SDS011;27089;50.022;7.604;2024-01-16T14:21:43;12.80;;;6.87;;
41343;SDS011;27089;50.022;7.604;2024-01-16T14:24:10;13.53;;;5.70;;
41343;SDS011;27089;50.022;7.604;2024-01-16T14:26:37;8.37;;;3.80;;
41343;SDS011;27089;50.022;7.604;2024-01-16T14:29:05;4.90;;;2.27;;
41343;SDS011;27089;50.022;7.604;2024-01-16T14:31:32;4.87;;;2.10;;
41343;SDS011;27089;50.022;7.604;2024-01-16T14:33:59;4.70;;;2.37;;
41343;SDS011;27089;50.022;7.604;2024-01-16T14:36:26;7.40;;;2.50;;
41343;SDS011;27089;50.022;7.604;2024-01-16T14:38:53;5.70;;;2.67;;
41343;SDS011;27089;50.022;7.604;2024-01-16T14:41:21;9.77;;;2.63;;
41343;SDS011;27089;50.022;7.604;2024-01-16T14:43:48;7.33;;;2.97;;
41343;SDS011;27089;50.022;7.604;2024-01-16T14:46:16;8.87;;;3.63;;
41343;SDS011;27089;50.022;7.604;2024-01-16T14:48:44;6.93;;;2.40;;
41343;SDS011;27089;50.022;7.604;2024-01-16T14:51:11;9.83;;;3.10;;
41343;SDS011;27089;50.022;7.604;2024-01-16T14:53:38;4.83;;;2.73;;
41343;SDS011;27089;50.022;7.604;2024-01-16T14:56:05;8.93;;;2.83;;